Time;durP1;ratioP1;P1;durP2;ratioP2;P2;SDS_P1;SDS_P2;PMS_P1;PMS_P2;Temp;Humidity;BMP_temperature;BMP_pressure;BME280_temperature;BME280_humidity;BME280_pressure;Samples;Min_cycle;Max_cycle;Signal;HPM_P1;HPM_P2
2021/06/15 00:02:00;;;;;;;3.40;1.90;;;;;;;8.97;79.83;95855.14;1787231;80;20991;-63
2021/06/15 00:04:26;;;;;;;5.33;1.87;;;;;;;8.88;80.07;95852.16;1787241;80;21465;-63
2021/06/15 00:06:54;;;;;;;5.43;1.80;;;;;;;8.83;80.37;95857.89;1786627;80;21051;-63
2021/06/15 00:09:20;;;;;;;3.70;1.70;;;;;;;8.86;80.66;95846.89;1787393;80;21453;-63
2021/06/15 00:11:47;;;;;;;4.23;2.00;;;;;;;8.78;81.16;95848.72;1786909;80;21075;-63
2021/06/15 00:14:14;;;;;;;2.93;1.60;;;;;;;8.81;80.74;95847.81;1787776;80;21076;-63
2021/06/15 00:16:41;;;;;;;4.07;2.23;;;;;;;8.82;80.34;95850.86;1795580;80;21006;-63
2021/06/15 00:19:10;;;;;;;3.63;2.30;;;;;;;8.81;80.51;95850.45;1795387;80;21014;-63
2021/06/15 00:21:37;;;;;;;3.20;1.97;;;;;;;8.82;80.12;95854.39;1795122;80;20990;-63
2021/06/15 00:24:05;;;;;;;2.20;1.77;;;;;;;8.73;80.10;95850.95;1795557;80;21010;-63
2021/06/15 00:26:32;;;;;;;2.90;1.77;;;;;;;8.70;79.82;95848.36;1795568;80;21085;-63
2021/06/15 00:28:58;;;;;;;2.30;1.60;;;;;;;8.65;80.10;95846.62;1795351;80;20994;-63
2021/06/15 00:31:26;;;;;;;1.60;1.50;;;;;;;8.62;80.94;95837.44;1795580;80;21476;-63
2021/06/15 00:33:54;;;;;;;2.10;1.63;;;;;;;8.55;81.81;95836.18;1795846;80;21049;-63
2021/06/15 00:36:21;;;;;;;8.67;1.60;;;;;;;8.50;82.28;95835.34;1795388;80;20994;-63
2021/06/15 00:38:48;;;;;;;4.00;1.57;;;;;;;8.54;82.36;95837.05;1795573;80;21468;-63
2021/06/15 00:41:14;;;;;;;2.60;1.87;;;;;;;8.56;82.41;95840.55;1795169;80;21037;-63
2021/06/15 00:43:41;;;;;;;2.87;1.60;;;;;;;8.60;82.30;95847.09;1795396;80;21034;-63
2021/06/15 00:46:08;;;;;;;3.43;2.00;;;;;;;8.67;82.18;95845.30;1795112;80;21090;-63
2021/06/15 00:48:36;;;;;;;2.47;1.60;;;;;;;8.73;81.75;95854.91;1795231;80;21105;-63
2021/06/15 00:51:06;;;;;;;1.57;1.33;;;;;;;8.75;81.52;95859.72;1795807;80;21053;-63
2021/06/15 00:53:36;;;;;;;1.70;1.30;;;;;;;8.74;81.82;95851.38;1795593;80;20947;-63
2021/06/15 00:56:05;;;;;;;6.73;1.30;;;;;;;8.73;82.74;95850.95;1795241;80;21103;-63
2021/06/15 00:58:33;;;;;;;3.47;1.50;;;;;;;8.72;82.59;95844.83;1795470;80;20962;-63
2021/06/15 01:01:00;;;;;;;2.73;1.30;;;;;;;8.81;82.52;95842.55;1795442;80;20991;-63
2021/06/15 01:03:29;;;;;;;2.03;1.50;;;;;;;8.91;82.52;95846.86;1795035;80;21101;-63
2021/06/15 01:05:59;;;;;;;1.93;1.60;;;;;;;9.01;82.17;95848.52;1795305;80;20974;-63
2021/06/15 01:08:45;;;;;;;3.53;1.73;;;;;;;9.15;81.77;95850.16;1795475;80;20970;-63
2021/06/15 01:11:52;;;;;;;3.47;1.57;;;;;;;9.23;81.11;95849.22;1794568;80;21010;-63
2021/06/15 01:14:45;;;;;;;1.80;1.37;;;;;;;9.20;80.64;95842.67;1795329;80;20966;-63
2021/06/15 01:17:29;;;;;;;1.73;1.27;;;;;;;9.20;81.22;95828.64;1787272;80;21058;-63
2021/06/15 01:20:10;;;;;;;3.87;1.50;;;;;;;9.24;81.80;95832.97;1786746;80;21573;-63
2021/06/15 01:23:30;;;;;;;1.73;1.27;;;;;;;9.30;81.76;95829.84;1786316;80;21011;-63
2021/06/15 01:26:17;;;;;;;2.80;1.70;;;;;;;9.43;81.49;95833.22;1786910;80;21062;-63
2021/06/15 01:28:58;;;;;;;4.00;2.00;;;;;;;9.52;80.51;95826.97;1785991;80;21638;-63
2021/06/15 01:31:31;;;;;;;3.27;1.57;;;;;;;9.52;80.71;95829.61;1786579;80;21046;-63
2021/06/15 01:34:06;;;;;;;2.30;1.90;;;;;;;9.51;80.51;95827.42;1754251;80;20989;-63
2021/06/15 01:36:53;;;;;;;5.23;2.90;;;;;;;9.53;80.29;95836.19;1787068;80;21098;-63
2021/06/15 01:39:25;;;;;;;4.87;2.50;;;;;;;9.52;80.19;95828.29;1786491;80;20960;-63
2021/06/15 01:42:09;;;;;;;4.13;2.90;;;;;;;9.44;80.41;95830.14;1787159;80;21098;-63
2021/06/15 01:44:38;;;;;;;6.33;2.67;;;;;;;9.31;81.30;95826.31;1787102;80;21039;-63
2021/06/15 01:47:11;;;;;;;4.10;2.73;;;;;;;9.28;81.62;95825.48;1787049;80;21015;-63
2021/06/15 01:49:52;;;;;;;2.53;1.93;;;;;;;9.24;81.64;95825.07;1786797;80;21023;-63
2021/06/15 01:52:26;;;;;;;3.03;1.90;;;;;;;9.13;82.13;95835.71;1783772;80;20979;-63
2021/06/15 01:54:55;;;;;;;3.87;2.00;;;;;;;9.10;81.65;95834.43;1787044;80;21011;-63
2021/06/15 01:57:25;;;;;;;2.57;2.23;;;;;;;9.04;81.92;95830.52;1787375;80;21053;-63
2021/06/15 01:59:57;;;;;;;7.73;5.77;;;;;;;9.04;82.44;95832.70;1785582;80;21011;-63
2021/06/15 02:02:27;;;;;;;5.37;2.80;;;;;;;9.04;82.21;95833.15;1787074;80;21070;-63
2021/06/15 02:04:56;;;;;;;1.90;1.10;;;;;;;9.00;82.42;95826.19;1787057;80;21058;-66
2021/06/15 02:07:32;;;;;;;1.70;1.27;;;;;;;8.95;82.05;95823.59;1786924;80;21133;-63
2021/06/15 02:10:10;;;;;;;1.50;1.40;;;;;;;8.87;82.39;95822.34;1787185;80;21006;-63
2021/06/15 02:12:53;;;;;;;1.40;0.90;;;;;;;8.77;82.80;95825.94;1784482;80;21003;-63
2021/06/15 02:15:27;;;;;;;2.50;1.00;;;;;;;8.78;82.49;95826.80;1786120;80;21030;-63
2021/06/15 02:18:10;;;;;;;2.40;1.00;;;;;;;8.78;82.09;95821.53;1730311;80;21465;-63
2021/06/15 02:20:43;;;;;;;0.70;0.70;;;;;;;8.75;82.15;95836.04;1782713;80;20985;-63
2021/06/15 02:23:13;;;;;;;2.43;0.70;;;;;;;8.65;82.03;95833.47;1795397;80;21034;-63
2021/06/15 02:25:42;;;;;;;1.50;0.90;;;;;;;8.61;82.32;95832.17;1795570;80;20994;-62
2021/06/15 02:28:09;;;;;;;3.07;1.00;;;;;;;8.57;81.99;95842.31;1795266;80;21037;-63
2021/06/15 02:30:35;;;;;;;0.63;0.63;;;;;;;8.50;81.97;95836.20;1795763;80;20987;-63
2021/06/15 02:33:09;;;;;;;0.60;0.60;;;;;;;8.53;81.91;95834.86;1795274;80;21531;-63
2021/06/15 02:35:41;;;;;;;3.80;0.70;;;;;;;8.55;81.94;95832.23;1795214;80;21468;-63
2021/06/15 02:38:13;;;;;;;2.72;0.70;;;;;;;8.51;81.85;95833.13;1795765;80;21509;-63
2021/06/15 02:40:42;;;;;;;1.70;0.60;;;;;;;8.47;81.67;95825.71;1795454;80;21034;-63
2021/06/15 02:43:13;;;;;;;1.67;0.50;;;;;;;8.54;81.91;95828.73;1795348;80;21018;-63
2021/06/15 02:45:42;;;;;;;0.93;0.80;;;;;;;8.52;81.83;95833.13;1764365;80;21460;-63
2021/06/15 02:48:11;;;;;;;2.33;0.50;;;;;;;8.53;81.46;95836.17;1795378;80;21555;-63
2021/06/15 02:50:41;;;;;;;3.33;0.60;;;;;;;8.48;81.45;95841.91;1794054;80;20998;-63
2021/06/15 02:53:28;;;;;;;2.87;1.10;;;;;;;8.43;81.10;95842.38;1795577;80;20967;-63
2021/06/15 02:56:10;;;;;;;2.13;0.80;;;;;;;8.35;80.97;95854.23;1782126;80;21484;-64
2021/06/15 02:58:39;;;;;;;5.72;2.20;;;;;;;8.34;81.25;95854.22;1795401;80;21051;-63
2021/06/15 03:01:05;;;;;;;1.10;1.00;;;;;;;8.35;81.35;95855.55;1795411;80;20966;-63
2021/06/15 03:03:38;;;;;;;3.23;0.63;;;;;;;8.36;81.20;95859.04;1795316;80;21050;-63
2021/06/15 03:06:06;;;;;;;0.70;0.70;;;;;;;8.23;80.75;95860.42;1795339;80;21063;-63
2021/06/15 03:08:35;;;;;;;0.50;0.50;;;;;;;8.19;80.74;95856.52;1795388;80;21049;-63
2021/06/15 03:11:04;;;;;;;1.20;0.73;;;;;;;8.12;81.48;95858.75;1795633;80;21014;-62
2021/06/15 03:13:45;;;;;;;0.77;0.50;;;;;;;8.01;83.12;95860.98;1795620;80;20999;-63
2021/06/15 03:16:17;;;;;;;2.30;0.90;;;;;;;7.97;83.89;95858.38;1790932;80;21042;-62
2021/06/15 03:19:22;;;;;;;1.03;0.93;;;;;;;8.05;83.80;95863.14;1787282;80;21003;-62
2021/06/15 03:22:07;;;;;;;2.40;0.80;;;;;;;8.16;83.52;95868.34;1785121;80;21029;-62
2021/06/15 03:24:39;;;;;;;0.70;0.70;;;;;;;8.23;83.80;95863.49;1787082;80;21002;-62
2021/06/15 03:27:11;;;;;;;1.30;0.90;;;;;;;8.18;83.82;95860.88;1787322;80;21030;-63
2021/06/15 03:29:42;;;;;;;2.42;1.00;;;;;;;8.18;83.68;95864.83;1786851;80;21042;-63
2021/06/15 03:32:12;;;;;;;1.30;0.90;;;;;;;8.20;82.97;95863.52;1780127;80;21038;-63
2021/06/15 03:34:46;;;;;;;2.17;1.33;;;;;;;8.20;83.44;95864.83;1754595;80;21050;-62
2021/06/15 03:37:24;;;;;;;2.70;1.10;;;;;;;8.31;83.67;95863.00;1786890;80;21041;-63
2021/06/15 03:39:55;;;;;;;1.67;1.10;;;;;;;8.36;84.90;95867.80;1787253;80;20976;-62
2021/06/15 03:42:26;;;;;;;3.97;1.30;;;;;;;8.42;84.77;95871.75;1787269;80;21026;-62
2021/06/15 03:44:58;;;;;;;1.20;1.03;;;;;;;8.51;84.85;95877.84;1787094;80;21082;-62
2021/06/15 03:47:26;;;;;;;2.03;1.50;;;;;;;8.49;84.60;95873.88;1753947;80;21011;-63
2021/06/15 03:49:55;;;;;;;3.50;2.60;;;;;;;8.47;84.44;95879.63;1787342;80;20991;-63
2021/06/15 03:52:40;;;;;;;19.40;13.53;;;;;;;8.53;84.78;95878.25;1787065;80;21421;-63
2021/06/15 03:55:11;;;;;;;15.63;11.87;;;;;;;8.64;84.78;95865.93;1787016;80;21047;-64
2021/06/15 03:57:42;;;;;;;19.60;16.20;;;;;;;8.73;84.43;95857.53;1786992;80;21006;-63
2021/06/15 04:00:15;;;;;;;11.83;9.80;;;;;;;8.88;84.39;95860.91;1787162;80;20947;-62
2021/06/15 04:02:43;;;;;;;;;;;;;;;9.08;84.04;95864.70;1789775;80;21005;-63
2021/06/15 04:05:12;;;;;;;3.10;2.20;;;;;;;9.22;83.89;95866.33;1755904;81;20142;-63
2021/06/15 04:07:42;;;;;;;3.73;2.03;;;;;;;9.35;83.79;95858.77;1747207;82;21449;-63
2021/06/15 04:10:12;;;;;;;3.27;2.40;;;;;;;9.49;83.67;95852.91;1787249;80;21005;-63
2021/06/15 04:12:39;;;;;;;5.50;2.00;;;;;;;9.68;83.27;95852.73;1787057;80;21043;-63
2021/06/15 04:15:09;;;;;;;2.10;1.10;;;;;;;9.89;82.64;95854.23;1787158;80;21003;-63
2021/06/15 04:17:45;;;;;;;1.30;1.20;;;;;;;9.98;82.33;95854.14;1787198;80;21011;-63
2021/06/15 04:20:14;;;;;;;1.63;1.00;;;;;;;10.11;81.78;95858.36;1787160;80;20963;-63
2021/06/15 04:22:47;;;;;;;3.00;1.10;;;;;;;10.16;80.82;95861.81;1787029;80;21050;-63
2021/06/15 04:25:19;;;;;;;3.37;1.00;;;;;;;10.21;80.41;95859.12;1787157;80;21010;-63
2021/06/15 04:27:46;;;;;;;1.42;1.22;;;;;;;10.26;80.63;95859.06;1787300;80;21000;-64
2021/06/15 04:30:16;;;;;;;2.37;0.97;;;;;;;10.45;80.56;95864.98;1787074;80;21023;-63
2021/06/15 04:32:57;;;;;;;3.50;2.13;;;;;;;10.49;79.95;95860.10;1787018;80;21030;-63
2021/06/15 04:35:35;;;;;;;7.33;1.13;;;;;;;10.65;79.96;95868.20;1786978;80;21078;-63
2021/06/15 04:38:15;;;;;;;3.73;1.40;;;;;;;10.73;80.21;95866.77;1786739;80;20991;-64
2021/06/15 04:40:46;;;;;;;3.23;1.50;;;;;;;10.86;79.88;95866.14;1787063;80;21026;-64
2021/06/15 04:43:42;;;;;;;2.63;1.13;;;;;;;11.04;79.93;95872.02;1786812;80;21073;-64
2021/06/15 04:46:22;;;;;;;2.90;1.47;;;;;;;11.09;80.26;95875.02;1779996;80;21521;-64
2021/06/15 04:49:12;;;;;;;1.20;1.10;;;;;;;11.11;79.75;95871.91;1787142;80;21464;-64
2021/06/15 04:51:40;;;;;;;3.20;0.97;;;;;;;11.08;78.59;95863.59;1786329;80;21046;-64
2021/06/15 04:54:11;;;;;;;4.70;1.70;;;;;;;11.16;78.34;95863.04;1787124;80;20967;-65
2021/06/15 04:56:41;;;;;;;4.30;1.70;;;;;;;11.20;78.29;95859.88;1787241;80;21420;-60
2021/06/15 04:59:09;;;;;;;2.43;1.63;;;;;;;11.38;79.18;95856.05;1787096;80;21046;-60
2021/06/15 05:01:36;;;;;;;3.33;1.60;;;;;;;11.53;79.04;95849.63;1787184;80;20979;-61
2021/06/15 05:04:07;;;;;;;1.70;1.60;;;;;;;11.68;79.30;95845.38;1780241;80;21013;-62
2021/06/15 05:06:38;;;;;;;3.67;1.40;;;;;;;11.83;78.85;95838.92;1787007;80;21011;-65
2021/06/15 05:09:08;;;;;;;3.47;1.60;;;;;;;12.00;78.75;95846.11;1787077;80;21082;-61
2021/06/15 05:11:36;;;;;;;1.73;1.20;;;;;;;12.12;78.20;95843.67;1787129;80;21003;-61
2021/06/15 05:14:07;;;;;;;2.10;1.20;;;;;;;12.13;77.60;95846.27;1786762;80;21156;-61
2021/06/15 05:16:36;;;;;;;1.70;1.30;;;;;;;12.12;77.26;95849.83;1787127;80;20987;-63
2021/06/15 05:19:04;;;;;;;4.80;1.60;;;;;;;12.19;77.82;95845.27;1794595;80;21102;-63
2021/06/15 05:21:41;;;;;;;3.03;1.33;;;;;;;12.29;77.62;95841.52;1795468;80;21471;-64
2021/06/15 05:24:49;;;;;;;3.87;1.40;;;;;;;12.42;77.77;95851.84;1776681;80;21078;-66
2021/06/15 05:27:20;;;;;;;2.37;1.53;;;;;;;12.54;78.06;95855.09;1795435;80;21002;-63
2021/06/15 05:29:47;;;;;;;2.60;1.20;;;;;;;12.79;78.19;95859.84;1795310;80;21041;-63
2021/06/15 05:32:13;;;;;;;3.20;1.23;;;;;;;12.94;76.83;95855.97;1795034;80;21034;-62
2021/06/15 05:34:40;;;;;;;5.77;1.47;;;;;;;13.08;76.36;95864.47;1795514;80;21002;-64
2021/06/15 05:37:08;;;;;;;6.37;1.27;;;;;;;13.16;75.79;95868.25;1795120;80;21018;-63
2021/06/15 05:39:36;;;;;;;1.97;1.20;;;;;;;13.28;75.33;95875.94;1795210;80;21052;-64
2021/06/15 05:42:05;;;;;;;2.67;1.00;;;;;;;13.36;74.06;95875.28;1795420;80;21010;-63
2021/06/15 05:44:33;;;;;;;1.73;0.90;;;;;;;13.40;73.47;95874.74;1795436;80;21010;-63
2021/06/15 05:47:01;;;;;;;2.40;1.00;;;;;;;13.53;74.24;95863.37;1795325;80;20995;-61
2021/06/15 05:49:28;;;;;;;2.50;1.07;;;;;;;13.81;74.04;95856.91;1795097;80;21085;-62
2021/06/15 05:52:00;;;;;;;3.73;0.97;;;;;;;14.07;73.91;95856.18;1794961;80;21627;-61
2021/06/15 05:54:27;;;;;;;1.40;1.10;;;;;;;14.32;74.06;95855.48;1794872;80;21050;-60
2021/06/15 05:56:53;;;;;;;5.58;1.20;;;;;;;14.56;73.33;95844.15;1795374;80;21038;-59
2021/06/15 05:59:20;;;;;;;2.67;1.50;;;;;;;14.66;73.48;95846.94;1795255;80;21018;-61
2021/06/15 06:01:47;;;;;;;1.90;1.60;;;;;;;14.71;73.89;95855.63;1795143;80;21113;-63
2021/06/15 06:04:15;;;;;;;4.05;1.60;;;;;;;14.76;73.42;95858.62;1795459;80;21438;-59
2021/06/15 06:09:27;;;;;;;5.25;2.17;;;;;;;14.93;73.16;95846.55;1795070;80;21007;-61
2021/06/15 06:11:54;;;;;;;4.17;1.47;;;;;;;15.06;73.50;95841.70;1795460;80;21535;-61
2021/06/15 06:14:20;;;;;;;3.02;1.70;;;;;;;15.23;72.59;95850.94;1795372;80;21010;-61
2021/06/15 06:16:47;;;;;;;3.37;1.82;;;;;;;15.36;73.35;95850.94;1795084;80;21047;-61
2021/06/15 06:19:15;;;;;;;3.27;1.30;;;;;;;15.59;72.87;95852.81;1795199;80;21026;-61
2021/06/15 06:21:43;;;;;;;7.60;1.20;;;;;;;15.71;71.53;95844.45;1795207;80;21075;-61
2021/06/15 06:24:12;;;;;;;1.62;1.05;;;;;;;15.81;71.52;95836.16;1795515;80;20959;-61
2021/06/15 06:26:39;;;;;;;1.30;1.00;;;;;;;15.91;71.52;95842.42;1795291;80;21127;-61
2021/06/15 06:29:06;;;;;;;1.17;0.98;;;;;;;16.04;71.03;95839.33;1795322;80;21011;-61
2021/06/15 06:31:34;;;;;;;1.25;1.00;;;;;;;16.14;70.91;95849.58;1795073;80;21077;-60
2021/06/15 06:34:00;;;;;;;1.57;1.20;;;;;;;16.28;70.92;95846.42;1789767;80;20935;-60
2021/06/15 06:36:27;;;;;;;2.87;1.00;;;;;;;16.35;70.39;95857.22;1784664;80;20971;-60
2021/06/15 06:38:54;;;;;;;4.95;1.10;;;;;;;16.27;69.48;95854.45;1766054;80;20987;-61
2021/06/15 06:41:21;;;;;;;5.00;1.30;;;;;;;16.22;69.80;95852.81;1785136;80;21058;-61
2021/06/15 06:43:48;;;;;;;3.98;1.15;;;;;;;16.25;69.49;95851.84;1769220;80;20964;-61
2021/06/15 06:46:15;;;;;;;3.22;1.10;;;;;;;16.29;69.64;95845.95;1779259;80;20942;-61
2021/06/15 06:48:42;;;;;;;2.45;1.67;;;;;;;16.52;69.74;95846.42;1722708;83;21070;-61
2021/06/15 06:51:08;;;;;;;4.53;1.70;;;;;;;16.71;69.04;95847.47;1721031;83;21540;-61
2021/06/15 06:53:36;;;;;;;3.92;1.60;;;;;;;16.90;69.10;95844.97;1722519;83;21039;-62
2021/06/15 06:56:06;;;;;;;2.25;1.60;;;;;;;17.02;68.89;95842.28;1765508;81;21134;-63
2021/06/15 06:58:34;;;;;;;5.00;1.40;;;;;;;17.20;69.30;95832.20;1765207;81;21109;-62
2021/06/15 07:01:02;;;;;;;3.92;1.42;;;;;;;17.26;67.46;95835.08;1755289;81;20943;-62
2021/06/15 07:03:29;;;;;;;2.00;1.00;;;;;;;17.18;67.44;95834.06;1763112;80;20980;-63
2021/06/15 07:05:56;;;;;;;3.00;1.47;;;;;;;17.16;67.72;95834.61;1760522;80;21484;-63
2021/06/15 07:08:24;;;;;;;1.95;1.10;;;;;;;17.18;66.93;95831.86;1777913;80;21017;-63
2021/06/15 07:10:51;;;;;;;2.08;1.30;;;;;;;17.20;66.81;95831.34;1795706;80;21053;-60
2021/06/15 07:13:18;;;;;;;3.67;1.50;;;;;;;17.22;66.14;95833.48;1795220;80;21105;-62
2021/06/15 07:15:45;;;;;;;1.67;1.10;;;;;;;17.26;66.82;95832.41;1795540;80;21002;-61
2021/06/15 07:18:12;;;;;;;1.92;1.52;;;;;;;17.23;66.36;95823.20;1792654;80;21087;-62
2021/06/15 07:20:38;;;;;;;1.62;1.30;;;;;;;17.32;66.06;95824.65;1787305;80;20991;-63
2021/06/15 07:23:05;;;;;;;3.40;1.20;;;;;;;17.42;66.52;95829.53;1786652;80;21065;-63
2021/06/15 07:25:32;;;;;;;1.70;1.20;;;;;;;17.62;66.45;95839.36;1787118;80;21497;-61
2021/06/15 07:27:59;;;;;;;1.17;1.00;;;;;;;17.88;66.27;95842.27;1786890;80;21015;-61
2021/06/15 07:30:27;;;;;;;1.30;1.00;;;;;;;18.06;64.52;95837.06;1787131;80;21018;-63
2021/06/15 07:32:58;;;;;;;4.53;1.30;;;;;;;18.30;64.70;95829.30;1787133;80;21087;-65
2021/06/15 07:35:26;;;;;;;1.25;1.00;;;;;;;18.40;64.20;95823.55;1787000;80;21026;-62
2021/06/15 07:37:55;;;;;;;1.27;1.17;;;;;;;18.64;63.60;95826.40;1787003;80;21086;-65
2021/06/15 07:40:23;;;;;;;2.35;1.30;;;;;;;18.81;63.26;95816.30;1787124;80;20951;-65
2021/06/15 07:42:56;;;;;;;2.35;1.15;;;;;;;18.83;63.21;95817.57;1786963;80;21505;-63
2021/06/15 07:45:25;;;;;;;1.82;1.00;;;;;;;18.86;61.95;95822.28;1758921;80;21286;-62
2021/06/15 07:47:51;;;;;;;1.20;1.10;;;;;;;19.01;61.33;95807.32;1786966;80;21102;-63
2021/06/15 07:50:19;;;;;;;1.25;1.17;;;;;;;19.01;61.33;95807.32;1778294;81;21029;-63
2021/06/15 07:52:47;;;;;;;1.42;1.27;;;;;;;19.21;62.69;95813.03;1756300;82;21511;-62
2021/06/15 07:55:16;;;;;;;1.17;0.85;;;;;;;19.12;61.63;95814.34;1778356;81;21087;-63
2021/06/15 07:57:44;;;;;;;2.17;1.00;;;;;;;19.03;61.22;95800.95;1756111;81;21030;-62
2021/06/15 08:00:12;;;;;;;1.45;1.00;;;;;;;19.25;61.63;95810.59;1778412;81;21551;-61
2021/06/15 08:02:40;;;;;;;1.20;1.10;;;;;;;19.25;61.63;95810.59;1778795;80;21030;-63
2021/06/15 08:05:09;;;;;;;0.85;0.80;;;;;;;19.33;59.87;95806.22;1778311;81;20964;-62
2021/06/15 08:07:35;;;;;;;4.90;0.98;;;;;;;19.19;58.41;95848.34;1778280;81;21015;-62
2021/06/15 08:10:03;;;;;;;1.40;1.10;;;;;;;18.79;59.46;95819.02;1755907;81;21090;-63
2021/06/15 08:12:30;;;;;;;6.37;1.25;;;;;;;18.79;59.46;95819.02;1754265;82;21085;-62
2021/06/15 08:14:57;;;;;;;1.45;1.22;;;;;;;18.89;61.37;95817.27;1778441;81;20959;-62
2021/06/15 08:17:24;;;;;;;2.92;1.20;;;;;;;19.13;61.41;95801.37;1778249;81;21102;-62
2021/06/15 08:19:51;;;;;;;5.67;1.22;;;;;;;19.27;59.78;95799.34;1756128;81;21067;-61
2021/06/15 08:22:17;;;;;;;1.67;0.90;;;;;;;19.41;58.81;95801.34;1754169;82;21039;-61
2021/06/15 08:24:44;;;;;;;2.30;1.22;;;;;;;19.48;58.04;95801.89;1755971;82;21552;-61
2021/06/15 08:27:11;;;;;;;2.35;1.07;;;;;;;19.58;59.28;95805.83;1778214;81;21019;-64
2021/06/15 08:29:38;;;;;;;1.10;1.00;;;;;;;19.66;58.73;95799.16;1755651;82;21035;-62
2021/06/15 08:32:06;;;;;;;1.72;0.93;;;;;;;19.67;58.14;95804.06;1778421;81;21445;-62
2021/06/15 08:34:35;;;;;;;1.30;1.20;;;;;;;19.67;59.33;95806.27;1756158;82;21030;-61
2021/06/15 08:37:02;;;;;;;1.67;1.10;;;;;;;19.88;59.83;95801.64;1778493;81;21541;-59
2021/06/15 08:39:29;;;;;;;1.12;1.02;;;;;;;20.23;59.39;95804.72;1755797;82;21026;-65
2021/06/15 08:41:59;;;;;;;1.62;1.40;;;;;;;20.18;54.86;95808.12;1778160;81;21465;-61
2021/06/15 08:44:25;;;;;;;2.05;1.20;;;;;;;20.15;56.93;95808.29;1755781;81;21108;-61
2021/06/15 08:46:52;;;;;;;1.77;1.50;;;;;;;20.20;58.64;95809.77;1778244;81;20992;-61
2021/06/15 08:49:19;;;;;;;4.72;1.42;;;;;;;20.35;56.95;95805.89;1778374;81;21058;-63
2021/06/15 08:51:46;;;;;;;3.20;1.17;;;;;;;20.63;56.42;95800.78;1755815;82;21015;-61
2021/06/15 08:54:18;;;;;;;1.25;1.15;;;;;;;20.51;56.01;95801.41;1777747;81;21532;-62
2021/06/15 08:56:45;;;;;;;1.40;1.30;;;;;;;20.66;58.04;95802.42;1778393;81;21015;-62
2021/06/15 08:59:22;;;;;;;1.35;1.25;;;;;;;21.01;56.35;95807.64;1755950;82;21054;-65
2021/06/15 09:01:52;;;;;;;1.80;1.47;;;;;;;21.42;56.88;95801.75;1778402;81;21501;-62
2021/06/15 09:04:19;;;;;;;3.22;1.52;;;;;;;21.75;54.23;95805.16;1756006;81;21525;-62
2021/06/15 09:06:47;;;;;;;2.45;1.50;;;;;;;21.93;54.31;95806.36;1778138;81;21050;-62
2021/06/15 09:09:15;;;;;;;1.77;1.22;;;;;;;22.02;53.12;95812.50;1754980;82;21093;-63
2021/06/15 09:11:53;;;;;;;1.32;1.22;;;;;;;21.81;52.06;95803.44;1777413;81;21126;-63
2021/06/15 09:14:43;;;;;;;1.50;1.40;;;;;;;21.53;53.80;95806.03;1754999;82;21035;-63
2021/06/15 09:17:27;;;;;;;1.82;1.32;;;;;;;21.24;54.14;95801.82;1777879;81;20991;-62
2021/06/15 09:20:13;;;;;;;1.60;1.20;;;;;;;21.14;54.48;95803.30;1755657;81;21050;-63
2021/06/15 09:22:41;;;;;;;1.92;1.30;;;;;;;21.09;53.30;95805.38;1776912;81;21111;-62
2021/06/15 09:25:14;;;;;;;1.05;1.02;;;;;;;20.86;54.15;95814.73;1778341;81;20960;-62
2021/06/15 09:27:41;;;;;;;1.40;1.30;;;;;;;21.07;54.06;95806.83;1755992;82;21083;-62
2021/06/15 09:30:13;;;;;;;1.50;1.40;;;;;;;21.49;54.11;95802.64;1778454;81;21067;-62
2021/06/15 09:32:43;;;;;;;1.60;1.50;;;;;;;21.80;54.10;95800.86;1778397;81;21012;-62
2021/06/15 09:35:21;;;;;;;3.20;1.65;;;;;;;21.99;54.47;95800.12;1778355;81;21516;-62
2021/06/15 09:37:55;;;;;;;1.40;1.30;;;;;;;22.12;52.73;95798.89;1751807;82;21083;-64
2021/06/15 09:40:30;;;;;;;3.00;1.50;;;;;;;21.93;54.32;95803.67;1778527;81;21481;-62
2021/06/15 09:43:05;;;;;;;1.47;1.37;;;;;;;21.80;53.21;95804.41;1777820;81;20992;-62
2021/06/15 09:45:44;;;;;;;2.22;1.50;;;;;;;21.73;52.52;95801.69;1756144;81;21102;-62
2021/06/15 09:48:34;;;;;;;1.37;1.27;;;;;;;21.67;53.37;95806.55;1778269;81;21008;-62
2021/06/15 09:51:14;;;;;;;1.75;1.55;;;;;;;21.68;53.46;95798.90;1778312;81;20991;-62
2021/06/15 09:53:45;;;;;;;2.60;1.70;;;;;;;21.66;52.97;95798.12;1778154;81;21016;-62
2021/06/15 09:56:15;;;;;;;2.15;1.60;;;;;;;21.91;56.17;95797.52;1778196;81;21481;-62
2021/06/15 09:58:52;;;;;;;1.50;1.40;;;;;;;22.05;53.12;95797.56;1778300;81;20960;-62
2021/06/15 10:01:37;;;;;;;2.37;1.67;;;;;;;22.31;52.28;95794.64;1778404;81;21030;-62
2021/06/15 10:04:12;;;;;;;2.12;1.77;;;;;;;22.38;52.60;95794.65;1755808;81;21050;-62
2021/06/15 10:06:43;;;;;;;1.95;1.55;;;;;;;22.28;52.08;95790.80;1778427;81;20983;-62
2021/06/15 10:09:11;;;;;;;2.95;1.75;;;;;;;22.23;51.83;95791.56;1756018;82;20998;-62
2021/06/15 10:11:39;;;;;;;2.77;1.62;;;;;;;22.28;52.35;95804.24;1754470;82;21030;-62
2021/06/15 10:14:06;;;;;;;1.92;1.60;;;;;;;22.28;51.95;95790.80;1778246;81;20980;-62
2021/06/15 10:16:33;;;;;;;1.60;1.50;;;;;;;22.24;51.91;95791.45;1756027;82;21018;-62
2021/06/15 10:19:00;;;;;;;3.70;1.90;;;;;;;22.02;51.80;95799.95;1754386;82;21051;-62
2021/06/15 10:21:30;;;;;;;1.60;1.50;;;;;;;21.96;53.08;95798.96;1771211;80;21561;-62
2021/06/15 10:23:57;;;;;;;1.67;1.57;;;;;;;22.00;52.82;95793.80;1755748;82;21115;-62
2021/06/15 10:26:24;;;;;;;2.20;1.57;;;;;;;22.03;53.81;95794.09;1754808;82;21068;-62
2021/06/15 10:28:51;;;;;;;2.12;1.40;;;;;;;22.17;53.57;95802.64;1756191;82;21022;-62
2021/06/15 10:31:29;;;;;;;2.35;1.60;;;;;;;22.33;53.06;95799.45;1778424;81;21056;-62
2021/06/15 10:33:56;;;;;;;1.98;1.67;;;;;;;22.57;51.58;95796.17;1777218;81;20996;-62
2021/06/15 10:36:45;;;;;;;1.80;1.70;;;;;;;23.12;51.23;95796.71;1756199;81;21015;-62
2021/06/15 10:39:19;;;;;;;1.50;1.40;;;;;;;23.51;48.80;95795.92;1778027;81;21019;-62
2021/06/15 10:41:46;;;;;;;2.05;1.37;;;;;;;23.83;48.35;95793.40;1749715;82;21519;-62
2021/06/15 10:44:14;;;;;;;1.75;1.60;;;;;;;23.71;47.46;95801.33;1778402;81;21046;-62
2021/06/15 10:46:43;;;;;;;1.35;1.15;;;;;;;23.55;48.50;95793.39;1756048;82;21018;-62
2021/06/15 10:49:14;;;;;;;1.82;1.22;;;;;;;23.64;46.88;95786.53;1778576;81;21465;-62
2021/06/15 10:51:57;;;;;;;1.00;1.00;;;;;;;23.80;45.50;95785.53;1756314;81;21511;-62
2021/06/15 10:54:40;;;;;;;1.30;1.20;;;;;;;23.84;46.40;95781.64;1778379;81;21002;-62
2021/06/15 10:57:28;;;;;;;2.65;1.30;;;;;;;23.96;45.93;95780.80;1756188;82;21026;-62
2021/06/15 11:00:07;;;;;;;1.20;1.10;;;;;;;23.90;46.57;95783.94;1778118;81;21016;-63
2021/06/15 11:02:36;;;;;;;1.62;1.20;;;;;;;23.68;46.77;95772.36;1756399;82;21030;-62
2021/06/15 11:05:37;;;;;;;2.22;1.02;;;;;;;24.11;45.34;95771.66;1754665;82;21015;-62
2021/06/15 11:08:23;;;;;;;1.20;1.10;;;;;;;24.55;44.42;95769.05;1760326;81;21109;-62
2021/06/15 11:11:19;;;;;;;1.35;1.25;;;;;;;24.77;44.64;95775.59;1740630;82;21038;-62
2021/06/15 11:13:55;;;;;;;1.12;1.12;;;;;;;24.63;44.13;95767.65;1754597;82;21023;-62
2021/06/15 11:16:35;;;;;;;1.95;1.60;;;;;;;24.25;44.33;95769.84;1778439;81;21531;-62
2021/06/15 11:19:14;;;;;;;2.58;1.55;;;;;;;23.98;45.29;95766.74;1753480;81;20991;-62
2021/06/15 11:21:48;;;;;;;2.33;1.30;;;;;;;23.60;46.67;95763.45;1773768;81;20979;-62
2021/06/15 11:24:26;;;;;;;4.30;1.62;;;;;;;23.39;46.99;95759.04;1743556;82;21093;-62
2021/06/15 11:27:07;;;;;;;4.53;1.47;;;;;;;23.17;47.14;95765.47;1773886;81;21577;-62
2021/06/15 11:29:39;;;;;;;1.40;1.30;;;;;;;22.99;48.48;95761.66;1738624;82;21033;-62
2021/06/15 11:32:36;;;;;;;2.72;1.40;;;;;;;22.82;49.04;95764.06;1774238;81;21018;-62
2021/06/15 11:35:08;;;;;;;1.42;1.32;;;;;;;22.84;48.71;95761.28;1743678;82;21042;-62
2021/06/15 11:37:46;;;;;;;2.87;1.60;;;;;;;22.93;49.22;95758.47;1774407;81;21587;-62
2021/06/15 11:40:35;;;;;;;1.87;1.40;;;;;;;22.99;49.14;95755.42;1743682;82;21058;-62
2021/06/15 11:43:16;;;;;;;1.92;1.55;;;;;;;23.18;49.81;95754.58;1773688;81;21090;-62
2021/06/15 11:45:47;;;;;;;1.17;1.17;;;;;;;23.18;48.60;95749.69;1744208;82;21453;-62
2021/06/15 11:48:38;;;;;;;1.72;1.50;;;;;;;23.24;49.31;95747.46;1772390;81;21579;-62
2021/06/15 11:51:09;;;;;;;1.92;1.60;;;;;;;23.24;48.83;95749.30;1743738;82;20999;-62
2021/06/15 11:53:40;;;;;;;2.70;1.40;;;;;;;23.51;48.28;95746.10;1773968;81;21014;-62
2021/06/15 11:56:10;;;;;;;2.00;1.72;;;;;;;23.79;46.79;95740.22;1743670;82;21061;-62
2021/06/15 11:58:43;;;;;;;2.05;1.60;;;;;;;24.11;46.90;95735.75;1774077;81;21030;-62
2021/06/15 12:01:14;;;;;;;2.25;1.70;;;;;;;24.21;47.18;95737.32;1743752;82;21018;-62
2021/06/15 12:03:47;;;;;;;3.50;1.60;;;;;;;24.08;47.51;95730.58;1773916;81;21017;-62